createdAt,value
2018-04-19T00:01:31.211Z,15.07
2018-04-19T00:04:00.155Z,17.43
2018-04-19T00:06:28.442Z,12.10
2018-04-19T00:08:56.789Z,14.57
2018-04-19T00:11:25.094Z,16.77
2018-04-19T00:13:53.379Z,15.00
2018-04-19T00:16:21.712Z,14.93
2018-04-19T00:18:50.001Z,15.90
2018-04-19T00:21:18.296Z,15.60
2018-04-19T00:23:46.728Z,15.97
2018-04-19T00:26:14.976Z,14.30
2018-04-19T00:28:43.264Z,14.70
2018-04-19T00:31:11.951Z,14.60
2018-04-19T00:33:41.007Z,14.93
2018-04-19T00:36:09.295Z,16.43
2018-04-19T00:38:37.637Z,15.63
2018-04-19T00:41:06.407Z,13.93
2018-04-19T00:43:34.739Z,15.40
2018-04-19T00:46:04.163Z,16.53
2018-04-19T00:48:32.619Z,15.50
2018-04-19T00:51:00.943Z,15.07
2018-04-19T00:53:29.239Z,15.90
2018-04-19T00:55:57.527Z,16.77
2018-04-19T00:58:25.863Z,15.13
2018-04-19T01:00:54.163Z,17.93
2018-04-19T01:03:22.503Z,16.60
2018-04-19T01:05:50.823Z,16.47
2018-04-19T01:08:19.700Z,17.17
2018-04-19T01:10:47.987Z,15.80
2018-04-19T01:13:16.343Z,17.63
2018-04-19T01:15:44.650Z,18.67
2018-04-19T01:18:12.946Z,15.90
2018-04-19T01:20:41.692Z,15.10
2018-04-19T01:23:09.983Z,17.50
2018-04-19T01:25:39.031Z,15.77
2018-04-19T01:28:07.347Z,17.63
2018-04-19T01:30:35.639Z,16.30
2018-04-19T01:33:03.967Z,16.87
2018-04-19T01:35:49.871Z,17.70
2018-04-19T01:38:18.554Z,14.43
2018-04-19T01:40:47.283Z,15.80
2018-04-19T01:43:15.586Z,16.80
2018-04-19T01:45:43.926Z,17.40
2018-04-19T01:48:12.375Z,17.20
2018-04-19T01:50:40.701Z,14.13
2018-04-19T01:53:09.062Z,15.97
2018-04-19T01:55:38.118Z,16.70
2018-04-19T01:58:06.464Z,16.53
2018-04-19T02:00:34.752Z,16.30
2018-04-19T02:03:04.112Z,15.90
2018-04-19T02:05:32.455Z,17.37
2018-04-19T02:08:00.756Z,17.60
2018-04-19T02:10:29.063Z,16.27
2018-04-19T02:12:57.859Z,16.03
2018-04-19T02:15:26.183Z,15.20
2018-04-19T02:17:54.480Z,16.53
2018-04-19T02:20:24.456Z,17.17
2018-04-19T02:22:53.553Z,14.90
2018-04-19T02:25:21.867Z,15.53
2018-04-19T02:27:50.394Z,14.67
2018-04-19T02:30:18.751Z,19.53
2018-04-19T02:32:47.075Z,17.30
2018-04-19T02:35:16.088Z,16.83
2018-04-19T02:37:44.652Z,20.70
2018-04-19T02:40:12.951Z,18.10
2018-04-19T02:42:41.363Z,18.60
2018-04-19T02:45:10.228Z,18.50
2018-04-19T02:47:39.286Z,17.27
2018-04-19T02:50:08.913Z,15.93
2018-04-19T02:52:37.240Z,17.53
2018-04-19T02:55:05.545Z,17.73
2018-04-19T02:57:33.904Z,15.33
2018-04-19T03:00:02.880Z,14.90
2018-04-19T03:02:31.232Z,12.83
2018-04-19T03:04:59.596Z,14.93
2018-04-19T03:07:27.977Z,14.80
2018-04-19T03:09:56.268Z,13.40
2018-04-19T03:12:24.600Z,14.27
2018-04-19T03:14:52.883Z,14.70
2018-04-19T03:17:21.225Z,13.60
2018-04-19T03:19:51.242Z,13.17
2018-04-19T03:22:20.088Z,15.20
2018-04-19T03:24:48.399Z,13.77
2018-04-19T03:27:16.720Z,14.87
2018-04-19T03:29:45.666Z,14.00
2018-04-19T03:32:14.139Z,15.50
2018-04-19T03:34:42.439Z,14.77
2018-04-19T03:37:10.951Z,14.17
2018-04-19T03:39:39.854Z,13.90
2018-04-19T03:42:08.685Z,14.67
2018-04-19T03:44:36.971Z,15.07
2018-04-19T03:47:05.316Z,15.70
2018-04-19T03:49:33.609Z,15.90
2018-04-19T03:52:01.923Z,16.33
2018-04-19T03:54:30.309Z,14.23
2018-04-19T03:56:58.609Z,16.23
2018-04-19T03:59:26.904Z,16.40
2018-04-19T04:01:55.807Z,15.07
2018-04-19T04:04:25.588Z,14.80
2018-04-19T04:06:53.943Z,16.43
2018-04-19T04:09:22.235Z,16.60
2018-04-19T04:11:50.525Z,17.33
2018-04-19T04:14:18.852Z,17.57
2018-04-19T04:17:04.609Z,17.93
2018-04-19T04:19:52.543Z,17.50
2018-04-19T04:22:32.143Z,15.60
2018-04-19T04:25:00.652Z,16.27
2018-04-19T04:27:30.256Z,16.93
2018-04-19T04:29:58.722Z,18.00
2018-04-19T04:32:27.010Z,18.20
2018-04-19T04:34:55.370Z,17.70
2018-04-19T04:37:23.686Z,18.67
2018-04-19T04:39:52.075Z,17.83
2018-04-19T04:42:21.092Z,19.93
2018-04-19T04:44:49.383Z,20.07
2018-04-19T04:47:17.674Z,20.47
2018-04-19T04:49:45.991Z,20.70
2018-04-19T04:52:14.972Z,20.87
2018-04-19T04:54:43.283Z,18.93
2018-04-19T04:57:12.336Z,19.90
2018-04-19T04:59:40.976Z,18.93
2018-04-19T05:02:09.295Z,19.30
2018-04-19T05:04:38.209Z,19.83
2018-04-19T05:07:06.532Z,19.13
2018-04-19T05:09:34.651Z,21.03
2018-04-19T05:12:02.944Z,19.40
2018-04-19T05:14:32.115Z,17.73
2018-04-19T05:17:00.399Z,20.10
2018-04-19T05:19:28.695Z,18.73
2018-04-19T05:21:57.003Z,17.50
2018-04-19T05:24:26.131Z,20.10
2018-04-19T05:26:55.331Z,18.57
2018-04-19T05:29:23.683Z,18.00
2018-04-19T05:31:52.564Z,18.73
2018-04-19T05:34:21.401Z,18.07
2018-04-19T05:36:49.802Z,16.40
2018-04-19T05:39:18.086Z,18.50
2018-04-19T05:41:46.372Z,18.57
2018-04-19T05:44:14.712Z,16.77
2018-04-19T05:46:42.999Z,16.00
2018-04-19T05:49:11.283Z,19.90
2018-04-19T05:51:39.616Z,17.63
2018-04-19T05:54:07.911Z,16.90
2018-04-19T05:56:36.207Z,17.67
2018-04-19T05:59:04.527Z,17.73
2018-04-19T06:01:33.652Z,18.13
2018-04-19T06:04:03.167Z,15.23
2018-04-19T06:06:31.455Z,18.50
2018-04-19T06:08:59.800Z,16.13
2018-04-19T06:11:28.094Z,16.57
2018-04-19T06:13:56.399Z,17.40
2018-04-19T06:16:24.632Z,18.50
2018-04-19T06:18:52.872Z,17.80
2018-04-19T06:21:21.206Z,16.77
2018-04-19T06:23:50.154Z,16.50
2018-04-19T06:26:18.444Z,16.33
2018-04-19T06:28:46.759Z,16.97
2018-04-19T06:31:15.046Z,15.13
2018-04-19T06:33:43.364Z,17.10
2018-04-19T06:36:12.446Z,19.60
2018-04-19T06:38:40.726Z,16.73
2018-04-19T06:41:09.058Z,16.40
2018-04-19T06:43:37.346Z,15.73
2018-04-19T06:46:05.695Z,17.13
2018-04-19T06:48:34.239Z,16.03
2018-04-19T06:51:02.523Z,16.10
2018-04-19T06:53:31.602Z,17.63
2018-04-19T06:55:59.907Z,15.53
2018-04-19T06:58:29.256Z,15.90
2018-04-19T07:00:57.785Z,15.10
2018-04-19T07:03:26.842Z,14.97
2018-04-19T07:05:55.938Z,14.20
2018-04-19T07:08:24.264Z,15.10
2018-04-19T07:10:52.599Z,13.77
2018-04-19T07:13:21.170Z,15.60
2018-04-19T07:15:49.559Z,13.80
2018-04-19T07:18:17.850Z,14.20
2018-04-19T07:20:46.168Z,14.60
2018-04-19T07:23:14.455Z,12.87
2018-04-19T07:25:43.319Z,13.50
2018-04-19T07:28:11.602Z,13.73
2018-04-19T07:30:39.887Z,13.27
2018-04-19T07:33:08.232Z,13.63
2018-04-19T07:35:36.515Z,11.77
2018-04-19T07:38:04.807Z,13.50
2018-04-19T07:40:33.141Z,13.97
2018-04-19T07:43:01.435Z,12.60
2018-04-19T07:45:29.725Z,11.47
2018-04-19T07:47:58.828Z,12.00
2018-04-19T07:50:27.926Z,10.80
2018-04-19T07:52:56.187Z,11.63
2018-04-19T07:55:24.528Z,11.70
2018-04-19T07:57:52.836Z,10.97
2018-04-19T08:00:21.140Z,11.90
2018-04-19T08:02:49.491Z,11.43
2018-04-19T08:05:18.295Z,9.90
2018-04-19T08:07:46.583Z,9.83
2018-04-19T08:10:15.588Z,9.83
2018-04-19T08:12:44.156Z,9.40
2018-04-19T08:15:12.927Z,9.80
2018-04-19T08:17:41.401Z,9.70
2018-04-19T08:20:09.687Z,9.83
2018-04-19T08:22:38.011Z,9.90
2018-04-19T08:25:06.340Z,10.00
2018-04-19T08:27:34.628Z,8.50
2018-04-19T08:30:02.920Z,8.40
2018-04-19T08:32:31.232Z,8.17
2018-04-19T08:34:59.528Z,8.30
2018-04-19T08:37:28.311Z,8.93
2018-04-19T08:39:56.668Z,8.53
2018-04-19T08:42:24.968Z,8.77
2018-04-19T08:44:54.083Z,8.63
2018-04-19T08:47:23.356Z,7.47
2018-04-19T08:49:51.871Z,6.03
2018-04-19T08:52:20.533Z,7.73
2018-04-19T08:54:48.855Z,6.87
2018-04-19T08:57:17.384Z,7.50
2018-04-19T08:59:46.435Z,6.40
2018-04-19T09:02:15.534Z,8.03
2018-04-19T09:04:44.575Z,7.57
2018-04-19T09:07:12.861Z,7.03
2018-04-19T09:09:41.551Z,6.60
2018-04-19T09:12:09.832Z,7.37
2018-04-19T09:14:38.266Z,7.60
2018-04-19T09:17:06.712Z,6.70
2018-04-19T09:19:35.055Z,7.50
2018-04-19T09:22:03.895Z,7.10
2018-04-19T09:24:32.181Z,6.77
2018-04-19T09:27:00.454Z,7.20
2018-04-19T09:29:28.787Z,8.10
2018-04-19T09:31:57.091Z,7.70
2018-04-19T09:34:26.137Z,5.93
2018-04-19T09:36:54.475Z,8.00
2018-04-19T09:39:23.539Z,6.70
2018-04-19T09:41:52.275Z,7.13
2018-04-19T09:44:20.595Z,6.70
2018-04-19T09:46:48.878Z,6.93
2018-04-19T09:49:17.163Z,7.77
2018-04-19T09:51:45.492Z,7.27
2018-04-19T09:54:13.851Z,7.60
2018-04-19T09:56:42.070Z,7.00
2018-04-19T09:59:14.131Z,6.80
2018-04-19T10:01:47.792Z,7.47
2018-04-19T10:04:16.108Z,6.37
2018-04-19T10:06:44.416Z,7.00
2018-04-19T10:09:12.700Z,7.03
2018-04-19T10:11:41.206Z,7.97
2018-04-19T10:14:10.247Z,7.30
2018-04-19T10:16:38.547Z,8.03
2018-04-19T10:19:06.863Z,7.67
2018-04-19T10:21:35.235Z,7.57
2018-04-19T10:24:04.071Z,8.57
2018-04-19T10:26:33.015Z,9.60
2018-04-19T10:29:01.675Z,8.30
2018-04-19T10:31:30.323Z,7.67
2018-04-19T10:33:58.664Z,8.10
2018-04-19T10:36:26.958Z,7.90
2018-04-19T10:38:55.248Z,9.23
2018-04-19T10:41:23.587Z,8.73
2018-04-19T10:43:51.879Z,8.60
2018-04-19T10:46:20.546Z,8.03
2018-04-19T10:48:48.970Z,9.00
2018-04-19T10:51:17.250Z,8.17
2018-04-19T10:53:45.545Z,10.07
2018-04-19T10:56:13.913Z,8.23
2018-04-19T10:58:42.200Z,9.03
2018-04-19T11:01:11.247Z,8.83
2018-04-19T11:03:40.323Z,8.60
2018-04-19T11:06:08.614Z,9.60
2018-04-19T11:08:37.731Z,9.10
2018-04-19T11:11:07.315Z,10.33
2018-04-19T11:13:35.652Z,9.27
2018-04-19T11:16:03.940Z,9.07
2018-04-19T11:18:32.803Z,9.00
2018-04-19T11:21:01.131Z,9.57
2018-04-19T11:23:29.422Z,8.60
2018-04-19T11:25:57.718Z,8.83
2018-04-19T11:28:26.050Z,9.07
2018-04-19T11:30:54.395Z,9.47
2018-04-19T11:33:22.651Z,9.37
2018-04-19T11:35:50.960Z,10.83
2018-04-19T11:38:19.250Z,10.30
2018-04-19T11:40:47.624Z,9.73
2018-04-19T11:43:15.919Z,10.10
2018-04-19T11:45:44.239Z,10.43
2018-04-19T11:48:12.531Z,9.87
2018-04-19T11:50:40.848Z,9.80
2018-04-19T11:53:09.974Z,10.03
2018-04-19T11:55:38.259Z,9.77
2018-04-19T11:58:06.572Z,9.73
2018-04-19T12:00:35.378Z,11.60
2018-04-19T12:03:03.663Z,11.97
2018-04-19T12:05:32.019Z,11.60
2018-04-19T12:08:01.035Z,12.40
2018-04-19T12:10:29.333Z,11.70
2018-04-19T12:12:57.698Z,11.07
2018-04-19T12:15:26.371Z,11.30
2018-04-19T12:17:55.055Z,11.67
2018-04-19T12:20:23.580Z,11.10
2018-04-19T12:22:51.872Z,11.50
2018-04-19T12:25:20.168Z,10.40
2018-04-19T12:27:48.559Z,12.83
2018-04-19T12:30:16.854Z,14.20
2018-04-19T12:32:45.236Z,12.93
2018-04-19T12:35:13.531Z,13.93
2018-04-19T12:37:42.198Z,13.90
2018-04-19T12:40:10.627Z,12.20
2018-04-19T12:42:38.915Z,13.90
2018-04-19T12:45:07.200Z,11.73
2018-04-19T12:47:35.541Z,12.10
2018-04-19T12:50:04.591Z,13.40
2018-04-19T12:52:32.879Z,12.90
2018-04-19T12:55:01.216Z,13.23
2018-04-19T12:57:29.859Z,12.97
2018-04-19T12:59:58.426Z,13.00
2018-04-19T13:02:26.764Z,12.40
2018-04-19T13:04:55.060Z,12.73
2018-04-19T13:07:23.342Z,12.30
2018-04-19T13:09:51.681Z,13.70
2018-04-19T13:12:20.736Z,10.93
2018-04-19T13:14:49.027Z,11.50
2018-04-19T13:17:18.127Z,12.43
2018-04-19T13:19:47.179Z,12.13
2018-04-19T13:22:15.463Z,12.40
2018-04-19T13:24:44.052Z,10.80
2018-04-19T13:27:12.359Z,11.97
2018-04-19T13:29:40.754Z,12.67
2018-04-19T13:32:09.116Z,12.57
2018-04-19T13:34:37.416Z,14.57
2018-04-19T13:37:06.245Z,13.17
2018-04-19T13:39:34.559Z,10.63
2018-04-19T13:42:02.859Z,10.97
2018-04-19T13:44:31.170Z,10.53
2018-04-19T13:46:59.483Z,11.20
2018-04-19T13:49:27.783Z,12.40
2018-04-19T13:51:56.923Z,11.00
2018-04-19T13:54:25.446Z,11.77
2018-04-19T13:56:54.055Z,12.30
2018-04-19T13:59:22.384Z,10.63
2018-04-19T14:01:50.676Z,10.80
2018-04-19T14:04:18.967Z,11.07
2018-04-19T14:06:47.304Z,11.43
2018-04-19T14:09:15.595Z,11.83
2018-04-19T14:11:43.902Z,12.20
2018-04-19T14:14:12.519Z,11.70
2018-04-19T14:16:40.807Z,10.33
2018-04-19T14:19:09.101Z,11.53
2018-04-19T14:21:37.427Z,9.97
2018-04-19T14:24:06.510Z,10.47
2018-04-19T14:26:35.923Z,10.37
2018-04-19T14:29:04.216Z,10.97
2018-04-19T14:31:32.583Z,9.63
2018-04-19T14:34:00.888Z,11.70
2018-04-19T14:36:30.235Z,12.30
2018-04-19T14:38:58.572Z,10.83
2018-04-19T14:41:26.865Z,10.00
2018-04-19T14:43:55.767Z,9.03
2018-04-19T14:46:24.091Z,10.53
2018-04-19T14:48:52.435Z,10.00
2018-04-19T14:51:20.727Z,10.60
2018-04-19T14:53:49.540Z,10.57
2018-04-19T14:56:17.959Z,10.90
2018-04-19T14:58:46.248Z,10.23
2018-04-19T15:01:14.763Z,10.00
2018-04-19T15:03:43.104Z,10.83
2018-04-19T15:06:12.326Z,10.57
2018-04-19T15:08:40.656Z,10.37
2018-04-19T15:11:08.947Z,9.20
2018-04-19T15:13:37.230Z,10.13
2018-04-19T15:16:05.563Z,9.10
2018-04-19T15:18:33.908Z,8.40
2018-04-19T15:21:02.201Z,8.40
2018-04-19T15:23:30.802Z,8.17
2018-04-19T15:25:59.097Z,10.10
2018-04-19T15:28:28.523Z,8.53
2018-04-19T15:30:57.247Z,9.00
2018-04-19T15:33:26.076Z,9.50
2018-04-19T15:35:54.433Z,10.40
2018-04-19T15:38:22.748Z,9.87
2018-04-19T15:40:52.682Z,7.07
2018-04-19T15:43:21.006Z,8.13
2018-04-19T15:45:49.291Z,7.50
2018-04-19T15:48:17.947Z,7.17
2018-04-19T15:50:47.514Z,6.03
2018-04-19T15:53:15.791Z,7.53
2018-04-19T15:55:44.071Z,6.67
2018-04-19T15:58:12.431Z,7.90
2018-04-19T16:00:40.715Z,7.73
2018-04-19T16:03:09.735Z,8.77
2018-04-19T16:05:38.096Z,7.50
2018-04-19T16:08:06.383Z,7.07
2018-04-19T16:10:34.855Z,7.30
2018-04-19T16:13:03.139Z,8.10
2018-04-19T16:15:31.431Z,7.10
2018-04-19T16:17:59.794Z,6.43
2018-04-19T16:20:28.107Z,5.83
2018-04-19T16:22:56.404Z,6.57
2018-04-19T16:25:24.738Z,5.93
2018-04-19T16:27:53.019Z,7.60
2018-04-19T16:30:21.959Z,5.80
2018-04-19T16:32:50.456Z,6.70
2018-04-19T16:35:18.503Z,7.00
2018-04-19T16:37:47.154Z,7.40
2018-04-19T16:40:15.498Z,8.30
2018-04-19T16:42:43.968Z,8.33
2018-04-19T16:45:13.398Z,7.63
2018-04-19T16:47:41.714Z,8.47
2018-04-19T16:50:10.053Z,7.57
2018-04-19T16:52:38.511Z,7.67
2018-04-19T16:55:06.872Z,6.40
2018-04-19T16:57:35.955Z,6.97
2018-04-19T17:00:04.743Z,6.13
2018-04-19T17:02:33.635Z,6.40
2018-04-19T17:05:02.203Z,6.57
2018-04-19T17:07:31.055Z,6.67
2018-04-19T17:09:59.387Z,7.10
2018-04-19T17:12:27.691Z,7.17
2018-04-19T17:14:55.979Z,7.20
2018-04-19T17:17:24.351Z,6.87
2018-04-19T17:19:52.639Z,7.40
2018-04-19T17:22:20.968Z,7.03
2018-04-19T17:24:49.319Z,7.10
2018-04-19T17:27:17.713Z,7.13
2018-04-19T17:29:46.033Z,6.80
2018-04-19T17:32:14.375Z,7.57
2018-04-19T17:34:43.477Z,6.13
2018-04-19T17:37:12.535Z,7.80
2018-04-19T17:39:42.227Z,6.37
2018-04-19T17:42:10.588Z,7.00
2018-04-19T17:44:38.871Z,8.23
2018-04-19T17:47:07.783Z,7.57
2018-04-19T17:49:36.126Z,8.07
2018-04-19T17:52:04.412Z,7.90
2018-04-19T17:54:32.699Z,7.30
2018-04-19T17:57:01.035Z,7.27
2018-04-19T17:59:30.092Z,6.70
2018-04-19T18:01:58.434Z,6.87
2018-04-19T18:04:26.727Z,7.13
2018-04-19T18:06:55.141Z,6.53
2018-04-19T18:09:23.480Z,6.40
2018-04-19T18:11:51.759Z,6.80
2018-04-19T18:14:20.045Z,6.83
2018-04-19T18:16:49.627Z,7.50
2018-04-19T18:19:18.443Z,7.07
2018-04-19T18:21:46.733Z,6.80
2018-04-19T18:24:15.215Z,6.53
2018-04-19T18:26:43.565Z,7.20
2018-04-19T18:29:12.803Z,6.70
2018-04-19T18:31:41.148Z,6.80
2018-04-19T18:34:09.434Z,7.60
2018-04-19T18:36:38.158Z,6.83
2018-04-19T18:39:06.516Z,7.13
2018-04-19T18:41:34.951Z,7.00
2018-04-19T18:44:03.251Z,7.57
2018-04-19T18:46:31.531Z,7.80
2018-04-19T18:48:59.889Z,8.17
2018-04-19T18:51:28.171Z,6.30
2018-04-19T18:53:57.039Z,7.00
2018-04-19T18:56:25.358Z,7.27
2018-04-19T18:58:53.906Z,8.10
2018-04-19T19:01:23.471Z,8.70
2018-04-19T19:03:51.856Z,7.63
2018-04-19T19:06:20.136Z,8.83
2018-04-19T19:08:48.914Z,6.87
2018-04-19T19:11:17.216Z,8.00
2018-04-19T19:13:45.514Z,8.57
2018-04-19T19:16:13.858Z,6.97
2018-04-19T19:19:00.072Z,7.73
2018-04-19T19:21:28.429Z,8.87
2018-04-19T19:23:56.729Z,8.87
2018-04-19T19:26:26.204Z,8.20
2018-04-19T19:28:54.556Z,8.10
2018-04-19T19:31:23.608Z,9.30
2018-04-19T19:33:52.766Z,8.07
2018-04-19T19:36:21.159Z,9.33
2018-04-19T19:38:49.459Z,8.03
2018-04-19T19:41:18.164Z,7.53
2018-04-19T19:43:46.516Z,7.70
2018-04-19T19:46:14.802Z,7.73
2018-04-19T19:48:43.132Z,7.20
2018-04-19T19:51:11.638Z,7.30
2018-04-19T19:53:40.034Z,9.10
2018-04-19T19:56:08.475Z,8.07
2018-04-19T19:58:39.675Z,7.63
2018-04-19T20:01:08.055Z,7.33
2018-04-19T20:03:36.376Z,7.93
2018-04-19T20:06:04.786Z,7.03
2018-04-19T20:08:33.968Z,7.70
2018-04-19T20:11:03.067Z,6.43
2018-04-19T20:13:31.635Z,7.40
2018-04-19T20:16:00.403Z,7.07
2018-04-19T20:18:28.703Z,7.07
2018-04-19T20:20:57.716Z,6.63
2018-04-19T20:23:26.764Z,6.57
2018-04-19T20:25:55.191Z,5.90
2018-04-19T20:28:23.819Z,6.40
2018-04-19T20:30:52.111Z,7.27
2018-04-19T20:33:20.955Z,7.13
2018-04-19T20:35:49.503Z,6.47
2018-04-19T20:38:18.871Z,6.00
2018-04-19T20:40:47.168Z,6.67
2018-04-19T20:43:15.534Z,6.57
2018-04-19T20:45:44.960Z,6.97
2018-04-19T20:48:13.251Z,7.30
2018-04-19T20:50:41.848Z,7.10
2018-04-19T20:53:10.234Z,8.10
2018-04-19T20:55:38.521Z,7.20
2018-04-19T20:58:06.807Z,7.50
2018-04-19T21:00:35.151Z,8.23
2018-04-19T21:03:04.007Z,7.70
2018-04-19T21:05:32.300Z,9.40
2018-04-19T21:08:01.624Z,7.63
2018-04-19T21:10:30.131Z,9.67
2018-04-19T21:12:59.194Z,7.73
2018-04-19T21:15:27.547Z,8.67
2018-04-19T21:17:56.595Z,8.70
2018-04-19T21:20:24.887Z,7.23
2018-04-19T21:22:53.174Z,7.67
2018-04-19T21:25:24.160Z,8.97
2018-04-19T21:27:52.452Z,6.93
2018-04-19T21:30:20.763Z,8.00
2018-04-19T21:32:49.829Z,8.47
2018-04-19T21:35:19.026Z,7.53
2018-04-19T21:37:47.783Z,6.90
2018-04-19T21:40:16.067Z,8.27
2018-04-19T21:42:44.882Z,7.77
2018-04-19T21:45:13.247Z,8.10
2018-04-19T21:47:41.672Z,11.73
2018-04-19T21:50:10.155Z,12.23
2018-04-19T21:52:38.444Z,14.77
2018-04-19T21:55:06.763Z,15.87
2018-04-19T21:57:36.171Z,23.57
2018-04-19T22:00:04.604Z,25.07
2018-04-19T22:02:32.984Z,23.90
2018-04-19T22:05:01.851Z,28.57
2018-04-19T22:07:30.938Z,32.07
2018-04-19T22:10:00.031Z,25.80
2018-04-19T22:12:28.381Z,38.40
2018-04-19T22:14:56.717Z,41.40
2018-04-19T22:17:25.019Z,39.83
2018-04-19T22:19:53.312Z,39.20
2018-04-19T22:22:21.655Z,36.90
2018-04-19T22:24:49.950Z,35.23
2018-04-19T22:27:18.246Z,33.00
2018-04-19T22:29:46.583Z,22.03
2018-04-19T22:32:14.867Z,22.97
2018-04-19T22:34:43.168Z,27.87
2018-04-19T22:37:11.483Z,24.50
2018-04-19T22:39:39.802Z,22.83
2018-04-19T22:42:08.123Z,22.07
2018-04-19T22:44:36.423Z,22.43
2018-04-19T22:47:04.752Z,19.40
2018-04-19T22:49:33.078Z,19.77
2018-04-19T22:52:01.428Z,22.10
2018-04-19T22:54:29.812Z,19.30
2018-04-19T22:56:58.164Z,18.50
2018-04-19T22:59:26.450Z,18.97
2018-04-19T23:01:54.783Z,16.60
2018-04-19T23:04:23.835Z,17.57
2018-04-19T23:06:52.323Z,17.90
2018-04-19T23:09:20.647Z,13.20
2018-04-19T23:11:49.033Z,14.53
2018-04-19T23:14:17.327Z,15.43
2018-04-19T23:16:45.667Z,13.80
2018-04-19T23:19:14.727Z,15.20
2018-04-19T23:21:43.663Z,15.37
2018-04-19T23:24:12.763Z,11.33
2018-04-19T23:26:41.058Z,11.23
2018-04-19T23:29:09.355Z,13.10
2018-04-19T23:31:38.878Z,11.33
2018-04-19T23:34:07.163Z,10.40
2018-04-19T23:36:35.447Z,9.83
2018-04-19T23:39:03.783Z,9.70
2018-04-19T23:41:32.070Z,8.77
2018-04-19T23:44:00.855Z,8.97
2018-04-19T23:46:29.256Z,9.33
2018-04-19T23:48:57.807Z,7.97
2018-04-19T23:51:26.102Z,8.60
2018-04-19T23:53:54.423Z,8.33
2018-04-19T23:56:22.741Z,8.27
2018-04-19T23:58:51.060Z,9.40
